Time;durP1;ratioP1;P1;durP2;ratioP2;P2;SDS_P1;SDS_P2;PMS_P1;PMS_P2;Temp;Humidity;BMP_temperature;BMP_pressure;BME280_temperature;BME280_humidity;BME280_pressure;Samples;Min_cycle;Max_cycle;Signal;HPM_P1;HPM_P2
2022/07/18 00:01:43;;;;;;;4.65;1.33;;;;;;;;;;5011297;28;20065;-85
2022/07/18 00:04:09;;;;;;;3.90;1.35;;;;;;;;;;5013206;28;20104;-84
2022/07/18 00:06:35;;;;;;;5.78;1.42;;;;;;;;;;5015275;28;20063;-84
2022/07/18 00:09:02;;;;;;;3.25;1.70;;;;;;;;;;5032225;28;20034;-85
2022/07/18 00:11:28;;;;;;;3.85;1.40;;;;;;;;;;5031818;28;20091;-84
2022/07/18 00:13:55;;;;;;;3.85;1.23;;;;;;;;;;5031288;28;20481;-85
2022/07/18 00:16:22;;;;;;;4.93;1.30;;;;;;;;;;5031023;28;20501;-84
2022/07/18 00:18:48;;;;;;;4.20;1.30;;;;;;;;;;5030170;28;20037;-84
2022/07/18 00:21:15;;;;;;;3.22;1.42;;;;;;;;;;5031152;28;20501;-84
2022/07/18 00:23:41;;;;;;;3.10;1.33;;;;;;;;;;5032870;28;20523;-85
2022/07/18 00:26:07;;;;;;;4.43;1.40;;;;;;;;;;5030640;28;20057;-84
2022/07/18 00:28:33;;;;;;;5.03;1.58;;;;;;;;;;5039106;28;20461;-84
2022/07/18 00:30:59;;;;;;;4.30;1.40;;;;;;;;;;5034957;28;20025;-84
2022/07/18 00:33:25;;;;;;;3.75;1.42;;;;;;;;;;5056837;28;20017;-84
2022/07/18 00:35:51;;;;;;;3.17;1.50;;;;;;;;;;5046876;28;20021;-84
2022/07/18 00:38:17;;;;;;;4.32;1.60;;;;;;;;;;5040161;28;20051;-84
2022/07/18 00:40:43;;;;;;;3.92;1.35;;;;;;;;;;5054604;28;20051;-84
2022/07/18 00:43:12;;;;;;;5.90;1.85;;;;;;;;;;5053215;28;20378;-84
2022/07/18 00:45:38;;;;;;;3.28;1.50;;;;;;;;;;5035286;28;20048;-84
2022/07/18 00:48:08;;;;;;;4.50;1.40;;;;;;;;;;5054462;28;20389;-84
2022/07/18 00:50:34;;;;;;;5.43;1.67;;;;;;;;;;5072809;28;20020;-84
2022/07/18 00:53:01;;;;;;;3.55;1.40;;;;;;;;;;5072312;28;20021;-84
2022/07/18 00:55:27;;;;;;;5.40;1.52;;;;;;;;;;5054422;28;20075;-84
2022/07/18 00:57:53;;;;;;;3.80;1.70;;;;;;;;;;5052233;28;20040;-84
2022/07/18 01:03:04;;;;;;;2.92;1.33;;;;;;;;;;5059399;28;20067;-84
2022/07/18 01:05:30;;;;;;;4.05;1.33;;;;;;;;;;5052151;28;20033;-84
2022/07/18 01:07:56;;;;;;;3.83;1.60;;;;;;;;;;5051792;28;20083;-84
2022/07/18 01:10:22;;;;;;;4.75;1.60;;;;;;;;;;5060443;28;20035;-84
2022/07/18 01:12:48;;;;;;;3.75;1.52;;;;;;;;;;5055789;28;20033;-84
2022/07/18 01:15:14;;;;;;;4.20;1.80;;;;;;;;;;5023842;28;20468;-84
2022/07/18 01:17:40;;;;;;;7.22;1.50;;;;;;;;;;5071042;28;20505;-85
2022/07/18 01:20:06;;;;;;;4.88;1.85;;;;;;;;;;5045798;28;20449;-84
2022/07/18 01:22:33;;;;;;;6.60;1.85;;;;;;;;;;5049085;28;20147;-84
2022/07/18 01:24:59;;;;;;;4.03;1.63;;;;;;;;;;5036011;28;20406;-84
2022/07/18 01:27:25;;;;;;;3.88;1.55;;;;;;;;;;5051647;28;20120;-84
2022/07/18 01:29:53;;;;;;;3.45;1.60;;;;;;;;;;5033830;28;20106;-85
2022/07/18 01:32:19;;;;;;;4.00;1.45;;;;;;;;;;5051771;28;20105;-85
2022/07/18 01:34:46;;;;;;;4.07;1.42;;;;;;;;;;5034882;28;20024;-85
2022/07/18 01:37:13;;;;;;;3.45;1.60;;;;;;;;;;5053777;28;20100;-84
2022/07/18 01:39:39;;;;;;;3.15;1.33;;;;;;;;;;5034154;28;20506;-85
2022/07/18 01:42:07;;;;;;;4.90;1.60;;;;;;;;;;5052259;28;20021;-85
2022/07/18 01:44:33;;;;;;;3.53;1.65;;;;;;;;;;5052448;28;20025;-84
2022/07/18 01:46:59;;;;;;;3.75;1.60;;;;;;;;;;5033630;28;20025;-84
2022/07/18 01:49:26;;;;;;;3.58;1.40;;;;;;;;;;5051754;28;20029;-85
2022/07/18 01:51:53;;;;;;;3.78;1.60;;;;;;;;;;5051737;28;20029;-85
2022/07/18 01:54:25;;;;;;;4.20;1.50;;;;;;;;;;5047535;28;20033;-84
2022/07/18 01:56:51;;;;;;;3.40;1.70;;;;;;;;;;5033644;28;20029;-85
2022/07/18 01:59:17;;;;;;;4.40;1.73;;;;;;;;;;5045793;28;20120;-85
2022/07/18 02:01:44;;;;;;;4.32;1.65;;;;;;;;;;5033128;28;20031;-84
2022/07/18 02:04:10;;;;;;;4.53;1.80;;;;;;;;;;5034186;28;20029;-85
2022/07/18 02:06:37;;;;;;;4.50;1.70;;;;;;;;;;5034467;28;20029;-84
2022/07/18 02:09:03;;;;;;;3.50;1.50;;;;;;;;;;5049251;28;20044;-84
2022/07/18 02:11:29;;;;;;;4.20;1.50;;;;;;;;;;5067004;28;20021;-84
2022/07/18 02:13:55;;;;;;;3.90;1.60;;;;;;;;;;5052516;28;20020;-85
2022/07/18 02:16:21;;;;;;;5.28;1.98;;;;;;;;;;5051422;28;20040;-85
2022/07/18 02:18:47;;;;;;;3.70;1.70;;;;;;;;;;5045517;28;20028;-85
2022/07/18 02:21:13;;;;;;;4.07;1.60;;;;;;;;;;5050751;28;20036;-84
2022/07/18 02:23:39;;;;;;;5.22;1.70;;;;;;;;;;5040378;28;20035;-84
2022/07/18 02:26:06;;;;;;;4.18;1.80;;;;;;;;;;5047902;28;20021;-85
2022/07/18 02:28:32;;;;;;;4.82;1.80;;;;;;;;;;5052070;28;20036;-84
2022/07/18 02:30:58;;;;;;;6.32;1.90;;;;;;;;;;5054931;28;20112;-85
2022/07/18 02:33:24;;;;;;;3.88;1.52;;;;;;;;;;5049026;28;20391;-85
2022/07/18 02:35:50;;;;;;;4.07;1.80;;;;;;;;;;5062171;28;20032;-85
2022/07/18 02:38:16;;;;;;;3.80;1.63;;;;;;;;;;5039683;28;20549;-85
2022/07/18 02:40:42;;;;;;;3.78;1.77;;;;;;;;;;5054439;28;20486;-84
2022/07/18 02:43:09;;;;;;;4.47;1.90;;;;;;;;;;5016869;28;20029;-85
2022/07/18 02:45:35;;;;;;;5.88;2.20;;;;;;;;;;5031183;28;20032;-85
2022/07/18 02:48:01;;;;;;;5.10;1.92;;;;;;;;;;5052911;28;20025;-84
2022/07/18 02:50:27;;;;;;;5.18;2.00;;;;;;;;;;5054513;28;20024;-85
2022/07/18 02:52:53;;;;;;;4.85;2.22;;;;;;;;;;5036643;28;20043;-84
2022/07/18 02:55:20;;;;;;;3.60;1.70;;;;;;;;;;5034628;28;20483;-85
2022/07/18 02:57:47;;;;;;;4.72;1.98;;;;;;;;;;5052636;28;20021;-85
2022/07/18 03:00:14;;;;;;;5.22;1.85;;;;;;;;;;5035794;28;20029;-85
2022/07/18 03:02:41;;;;;;;4.72;2.05;;;;;;;;;;5035114;28;20548;-84
2022/07/18 03:05:08;;;;;;;4.20;2.08;;;;;;;;;;5052422;28;20047;-84
2022/07/18 03:07:34;;;;;;;13.60;2.55;;;;;;;;;;5035962;28;20037;-85
2022/07/18 03:10:00;;;;;;;4.75;2.42;;;;;;;;;;5053223;28;20052;-84
2022/07/18 03:12:26;;;;;;;5.28;2.55;;;;;;;;;;5053421;28;20530;-85
2022/07/18 03:14:52;;;;;;;3.80;1.95;;;;;;;;;;5032528;28;20083;-85
2022/07/18 03:17:18;;;;;;;6.22;2.40;;;;;;;;;;5016737;28;20028;-85
2022/07/18 03:19:44;;;;;;;4.32;2.33;;;;;;;;;;5028451;28;20501;-85
2022/07/18 03:22:10;;;;;;;5.40;2.28;;;;;;;;;;5036458;28;20115;-85
2022/07/18 03:24:36;;;;;;;5.78;2.70;;;;;;;;;;5036321;28;20017;-85
2022/07/18 03:27:02;;;;;;;5.45;2.10;;;;;;;;;;5032312;28;20034;-85
2022/07/18 03:29:28;;;;;;;4.15;2.15;;;;;;;;;;5022211;28;20608;-84
2022/07/18 03:31:54;;;;;;;5.95;2.10;;;;;;;;;;5053725;28;20040;-84
2022/07/18 03:34:20;;;;;;;4.43;1.80;;;;;;;;;;5055905;28;20142;-85
2022/07/18 03:36:46;;;;;;;4.07;2.15;;;;;;;;;;5036140;28;20059;-85
2022/07/18 03:39:12;;;;;;;5.10;2.25;;;;;;;;;;5051171;28;20124;-84
2022/07/18 03:41:38;;;;;;;5.22;2.20;;;;;;;;;;5054131;28;20391;-85
2022/07/18 03:44:05;;;;;;;5.75;2.42;;;;;;;;;;5048319;28;20120;-85
2022/07/18 03:46:31;;;;;;;4.32;1.80;;;;;;;;;;5068381;28;20486;-84
2022/07/18 03:48:57;;;;;;;4.53;1.90;;;;;;;;;;5053326;28;20032;-85
2022/07/18 03:51:23;;;;;;;4.70;2.10;;;;;;;;;;5036217;28;20021;-84
2022/07/18 03:53:49;;;;;;;4.68;2.10;;;;;;;;;;5035993;28;20021;-85
2022/07/18 03:56:16;;;;;;;3.80;1.73;;;;;;;;;;5036230;28;20021;-85
2022/07/18 03:58:42;;;;;;;4.22;2.03;;;;;;;;;;5034190;28;20477;-84
2022/07/18 04:01:08;;;;;;;5.45;2.30;;;;;;;;;;5053347;28;20417;-85
2022/07/18 04:03:34;;;;;;;5.50;2.30;;;;;;;;;;5054465;28;20048;-84
2022/07/18 04:06:01;;;;;;;4.40;2.08;;;;;;;;;;5051913;28;20025;-85
2022/07/18 04:08:27;;;;;;;5.90;2.40;;;;;;;;;;5030592;28;20033;-85
2022/07/18 04:10:53;;;;;;;10.77;3.03;;;;;;;;;;5042096;28;20035;-85
2022/07/18 04:13:19;;;;;;;5.30;2.70;;;;;;;;;;5040177;28;20035;-85
2022/07/18 04:15:45;;;;;;;4.97;2.35;;;;;;;;;;5054059;28;20071;-85
2022/07/18 04:18:11;;;;;;;4.95;2.25;;;;;;;;;;5046710;28;20048;-85
2022/07/18 04:20:38;;;;;;;6.45;2.50;;;;;;;;;;5051570;28;20027;-85
2022/07/18 04:23:06;;;;;;;10.13;2.75;;;;;;;;;;5037202;28;20025;-85
2022/07/18 04:25:37;;;;;;;6.30;2.53;;;;;;;;;;5055987;28;20032;-85
2022/07/18 04:28:03;;;;;;;4.93;2.30;;;;;;;;;;5058472;28;20102;-84
2022/07/18 04:30:29;;;;;;;4.05;2.30;;;;;;;;;;5029284;28;20025;-85
2022/07/18 04:32:56;;;;;;;4.80;2.00;;;;;;;;;;5015168;28;20013;-85
2022/07/18 04:35:22;;;;;;;4.40;2.33;;;;;;;;;;5016168;28;20518;-85
2022/07/18 04:37:49;;;;;;;4.72;2.20;;;;;;;;;;5029996;28;20032;-85
2022/07/18 04:40:18;;;;;;;7.65;2.63;;;;;;;;;;5043464;28;20031;-85
2022/07/18 04:42:44;;;;;;;4.78;2.50;;;;;;;;;;5054337;28;20034;-84
2022/07/18 04:45:10;;;;;;;5.85;2.58;;;;;;;;;;5040411;28;20033;-85
2022/07/18 04:47:37;;;;;;;6.95;2.45;;;;;;;;;;5035583;28;20025;-85
2022/07/18 04:50:06;;;;;;;6.22;2.55;;;;;;;;;;5034926;28;20285;-85
2022/07/18 04:52:39;;;;;;;7.35;2.67;;;;;;;;;;5062755;28;20078;-84
2022/07/18 04:55:05;;;;;;;5.70;2.70;;;;;;;;;;5047192;28;20469;-85
2022/07/18 04:57:34;;;;;;;7.28;2.88;;;;;;;;;;5037970;28;20029;-85
2022/07/18 05:00:00;;;;;;;5.93;2.55;;;;;;;;;;5034222;28;20514;-85
2022/07/18 05:02:26;;;;;;;4.75;2.35;;;;;;;;;;5014709;28;20083;-84
2022/07/18 05:04:53;;;;;;;7.93;2.90;;;;;;;;;;5031635;28;20584;-84
2022/07/18 05:07:19;;;;;;;5.53;2.67;;;;;;;;;;5032009;28;20021;-84
2022/07/18 05:09:45;;;;;;;6.55;2.90;;;;;;;;;;5059480;28;20173;-84
2022/07/18 05:12:11;;;;;;;5.35;2.53;;;;;;;;;;5035829;28;20111;-84
2022/07/18 05:14:36;;;;;;;5.38;2.30;;;;;;;;;;5034368;28;20475;-84
2022/07/18 05:17:03;;;;;;;5.10;2.08;;;;;;;;;;5050322;28;20033;-84
2022/07/18 05:19:29;;;;;;;5.40;1.90;;;;;;;;;;5044227;28;20028;-84
2022/07/18 05:21:55;;;;;;;7.22;2.53;;;;;;;;;;5040168;28;20030;-85
2022/07/18 05:24:21;;;;;;;6.43;2.30;;;;;;;;;;5033786;28;20040;-84
2022/07/18 05:26:47;;;;;;;6.07;2.10;;;;;;;;;;5051710;28;20044;-84
2022/07/18 05:29:13;;;;;;;8.65;2.45;;;;;;;;;;5051813;28;20040;-85
2022/07/18 05:31:40;;;;;;;8.68;2.60;;;;;;;;;;5033683;28;20482;-84
2022/07/18 05:34:06;;;;;;;5.65;2.35;;;;;;;;;;5051324;28;20432;-84
2022/07/18 05:36:32;;;;;;;8.75;2.40;;;;;;;;;;5052585;28;20025;-84
2022/07/18 05:38:58;;;;;;;7.85;2.45;;;;;;;;;;5033120;28;20035;-84
2022/07/18 05:41:24;;;;;;;6.65;2.42;;;;;;;;;;5047544;28;20044;-84
2022/07/18 05:43:50;;;;;;;7.18;2.50;;;;;;;;;;5053036;28;20033;-84
2022/07/18 05:46:16;;;;;;;8.15;2.17;;;;;;;;;;5033810;28;20049;-83
2022/07/18 05:48:42;;;;;;;7.15;2.58;;;;;;;;;;5034938;28;20513;-84
2022/07/18 05:51:09;;;;;;;6.85;2.53;;;;;;;;;;5036127;28;20080;-84
2022/07/18 05:53:35;;;;;;;4.93;1.98;;;;;;;;;;5055376;28;20021;-84
2022/07/18 05:56:01;;;;;;;7.47;2.13;;;;;;;;;;5032865;28;20600;-85
2022/07/18 05:58:27;;;;;;;5.43;1.83;;;;;;;;;;5031888;28;20025;-84
2022/07/18 06:00:53;;;;;;;6.07;1.88;;;;;;;;;;5046603;28;20029;-84
2022/07/18 06:03:19;;;;;;;10.60;2.65;;;;;;;;;;5054373;28;20029;-83
2022/07/18 06:05:45;;;;;;;9.13;2.30;;;;;;;;;;5046862;28;20025;-84
2022/07/18 06:08:11;;;;;;;6.00;1.98;;;;;;;;;;5052259;28;20479;-85
2022/07/18 06:10:38;;;;;;;7.80;2.22;;;;;;;;;;5042667;28;20044;-84
2022/07/18 06:13:04;;;;;;;10.90;2.33;;;;;;;;;;5035829;28;20025;-85
2022/07/18 06:15:30;;;;;;;11.93;2.40;;;;;;;;;;5055436;28;20025;-84
2022/07/18 06:17:56;;;;;;;12.70;2.47;;;;;;;;;;5052398;28;20029;-85
2022/07/18 06:20:22;;;;;;;10.70;2.70;;;;;;;;;;5051192;28;21738;-83
2022/07/18 06:22:48;;;;;;;10.63;2.83;;;;;;;;;;5048242;28;20090;-83
2022/07/18 06:25:14;;;;;;;9.48;2.28;;;;;;;;;;5036926;28;20561;-84
2022/07/18 06:27:40;;;;;;;6.95;1.80;;;;;;;;;;5054219;28;20045;-83
2022/07/18 06:30:09;;;;;;;7.38;2.22;;;;;;;;;;5054436;28;20021;-83
2022/07/18 06:32:35;;;;;;;5.90;1.80;;;;;;;;;;5052422;28;20021;-82
2022/07/18 06:35:01;;;;;;;7.13;2.08;;;;;;;;;;5054091;28;20024;-83
2022/07/18 06:37:27;;;;;;;5.82;1.88;;;;;;;;;;5054048;28;20115;-83
2022/07/18 06:39:53;;;;;;;6.88;1.70;;;;;;;;;;5036949;28;20488;-84
2022/07/18 06:42:19;;;;;;;6.20;1.77;;;;;;;;;;5047348;28;20028;-83
2022/07/18 06:44:45;;;;;;;6.35;1.92;;;;;;;;;;5075412;28;20047;-83
2022/07/18 06:47:11;;;;;;;7.88;1.85;;;;;;;;;;5060421;28;20029;-83
2022/07/18 06:49:37;;;;;;;7.70;2.22;;;;;;;;;;5045781;28;20025;-83
2022/07/18 06:52:03;;;;;;;6.25;2.30;;;;;;;;;;5055325;28;20032;-83
2022/07/18 06:54:30;;;;;;;7.13;2.40;;;;;;;;;;5054821;28;20383;-84
2022/07/18 06:56:56;;;;;;;8.38;2.42;;;;;;;;;;5036196;28;20032;-83
2022/07/18 06:59:22;;;;;;;5.97;2.20;;;;;;;;;;5037341;28;20029;-83
2022/07/18 07:01:49;;;;;;;6.38;1.92;;;;;;;;;;5036907;28;20124;-83
2022/07/18 07:04:15;;;;;;;3.70;1.40;;;;;;;;;;5036805;28;20029;-84
2022/07/18 07:06:41;;;;;;;3.83;1.80;;;;;;;;;;5037112;28;20029;-83
2022/07/18 07:09:07;;;;;;;5.90;2.10;;;;;;;;;;5054502;28;20098;-83
2022/07/18 07:11:33;;;;;;;4.70;1.88;;;;;;;;;;5052593;28;20976;-83
2022/07/18 07:13:59;;;;;;;4.40;1.60;;;;;;;;;;5055840;28;20387;-83
2022/07/18 07:16:25;;;;;;;4.18;1.50;;;;;;;;;;5056166;28;20363;-84
2022/07/18 07:18:51;;;;;;;4.47;1.50;;;;;;;;;;5055301;28;20021;-84
2022/07/18 07:21:17;;;;;;;6.20;1.65;;;;;;;;;;5059168;28;20037;-82
2022/07/18 07:23:43;;;;;;;5.78;1.50;;;;;;;;;;5054066;28;20048;-83
2022/07/18 07:26:09;;;;;;;5.22;1.60;;;;;;;;;;5056904;28;20025;-83
2022/07/18 07:28:35;;;;;;;5.03;1.33;;;;;;;;;;5071800;28;20032;-83
2022/07/18 07:31:01;;;;;;;6.10;1.83;;;;;;;;;;5057668;28;20086;-83
2022/07/18 07:33:27;;;;;;;3.75;1.38;;;;;;;;;;5057893;28;20080;-83
2022/07/18 07:35:53;;;;;;;4.78;1.60;;;;;;;;;;5072049;28;20090;-84
2022/07/18 07:38:19;;;;;;;5.15;2.17;;;;;;;;;;5067882;28;20017;-83
2022/07/18 07:40:47;;;;;;;4.15;1.70;;;;;;;;;;5056191;28;20028;-82
2022/07/18 07:43:13;;;;;;;3.70;1.60;;;;;;;;;;5040485;28;20070;-83
2022/07/18 07:45:40;;;;;;;4.25;1.45;;;;;;;;;;5055751;28;20490;-84
2022/07/18 07:48:06;;;;;;;6.63;1.65;;;;;;;;;;5062714;28;20032;-83
2022/07/18 07:50:32;;;;;;;5.75;2.00;;;;;;;;;;5035189;28;20031;-83
2022/07/18 07:52:59;;;;;;;4.05;1.60;;;;;;;;;;5070725;28;20028;-83
2022/07/18 07:55:25;;;;;;;4.88;1.55;;;;;;;;;;5078140;28;20047;-84
2022/07/18 07:57:51;;;;;;;4.00;1.48;;;;;;;;;;5076978;28;20031;-84
2022/07/18 08:00:17;;;;;;;5.65;1.60;;;;;;;;;;5057189;28;20020;-82
2022/07/18 08:02:54;;;;;;;4.93;1.38;;;;;;;;;;5075178;28;20052;-84
2022/07/18 08:05:20;;;;;;;6.25;1.40;;;;;;;;;;5059859;28;20025;-83
2022/07/18 08:07:46;;;;;;;4.80;1.40;;;;;;;;;;5070473;28;20032;-84
2022/07/18 08:10:12;;;;;;;4.30;1.30;;;;;;;;;;5058041;28;20101;-84
2022/07/18 08:12:38;;;;;;;7.30;1.60;;;;;;;;;;5076630;28;20017;-82
2022/07/18 08:15:04;;;;;;;5.13;1.75;;;;;;;;;;5053449;28;20054;-84
2022/07/18 08:17:30;;;;;;;4.30;1.40;;;;;;;;;;5075723;28;20027;-82
2022/07/18 08:19:56;;;;;;;6.00;1.25;;;;;;;;;;5055033;28;20029;-83
2022/07/18 08:22:22;;;;;;;4.15;1.40;;;;;;;;;;5029366;28;20048;-83
2022/07/18 08:24:49;;;;;;;4.32;1.20;;;;;;;;;;5037806;28;20056;-84
2022/07/18 08:27:15;;;;;;;6.20;1.40;;;;;;;;;;5071880;28;20048;-83
2022/07/18 08:29:41;;;;;;;6.38;1.45;;;;;;;;;;5076896;28;20074;-83
2022/07/18 08:32:08;;;;;;;4.70;1.20;;;;;;;;;;5043913;28;20021;-84
2022/07/18 08:34:34;;;;;;;4.35;1.50;;;;;;;;;;5054030;28;20049;-83
2022/07/18 08:37:00;;;;;;;4.85;1.20;;;;;;;;;;5067357;28;20032;-83
2022/07/18 08:39:26;;;;;;;4.68;1.40;;;;;;;;;;5056687;28;20221;-83
2022/07/18 08:41:52;;;;;;;4.47;1.70;;;;;;;;;;5029817;28;20080;-82
2022/07/18 08:44:18;;;;;;;4.93;1.50;;;;;;;;;;5053938;28;20446;-84
2022/07/18 08:46:48;;;;;;;3.88;1.27;;;;;;;;;;5071408;28;20036;-84
2022/07/18 08:49:14;;;;;;;5.78;1.50;;;;;;;;;;5075470;28;20029;-83
2022/07/18 08:51:41;;;;;;;5.95;1.25;;;;;;;;;;5068460;28;20025;-83
2022/07/18 08:54:07;;;;;;;3.20;1.33;;;;;;;;;;5055076;28;20021;-82
2022/07/18 08:56:33;;;;;;;3.75;1.00;;;;;;;;;;5050239;28;20077;-83
2022/07/18 08:59:04;;;;;;;21.77;5.05;;;;;;;;;;5074711;28;20044;-83
2022/07/18 09:01:30;;;;;;;28.75;5.10;;;;;;;;;;5060660;28;20121;-83
2022/07/18 09:04:16;;;;;;;6.30;1.60;;;;;;;;;;5047073;28;20030;-83
2022/07/18 09:06:46;;;;;;;3.25;1.15;;;;;;;;;;5033141;28;20096;-81
2022/07/18 09:09:13;;;;;;;4.25;1.33;;;;;;;;;;5038709;28;20047;-81
2022/07/18 09:11:58;;;;;;;4.60;1.27;;;;;;;;;;5058022;28;20024;-84
2022/07/18 09:14:29;;;;;;;3.45;1.30;;;;;;;;;;5074797;28;20028;-84
2022/07/18 09:17:01;;;;;;;3.95;1.30;;;;;;;;;;5073118;28;20024;-82
2022/07/18 09:19:28;;;;;;;4.45;1.30;;;;;;;;;;5055001;28;20556;-83
2022/07/18 09:21:54;;;;;;;4.55;1.52;;;;;;;;;;5057090;28;20029;-83
2022/07/18 09:24:20;;;;;;;4.75;1.20;;;;;;;;;;5060462;28;20028;-83
2022/07/18 09:26:46;;;;;;;5.78;1.15;;;;;;;;;;5059946;28;20055;-83
2022/07/18 09:29:16;;;;;;;4.45;1.40;;;;;;;;;;5071465;28;20052;-83
2022/07/18 09:31:52;;;;;;;3.97;1.48;;;;;;;;;;5072743;28;20078;-82
2022/07/18 09:34:32;;;;;;;5.88;1.67;;;;;;;;;;5078819;28;20021;-83
2022/07/18 09:36:58;;;;;;;5.78;1.52;;;;;;;;;;5062096;28;20025;-84
2022/07/18 09:39:24;;;;;;;6.03;1.65;;;;;;;;;;5061030;28;20025;-82
2022/07/18 09:41:50;;;;;;;5.93;1.55;;;;;;;;;;5041663;28;20040;-83
2022/07/18 09:44:17;;;;;;;5.78;1.40;;;;;;;;;;5061433;28;20021;-83
2022/07/18 09:46:59;;;;;;;3.78;1.30;;;;;;;;;;5028872;28;20075;-84
2022/07/18 09:49:29;;;;;;;5.35;1.48;;;;;;;;;;5038069;28;20045;-82
2022/07/18 09:52:06;;;;;;;5.32;1.42;;;;;;;;;;5061163;28;20052;-84
2022/07/18 09:54:36;;;;;;;5.18;1.40;;;;;;;;;;5062748;28;20020;-83
2022/07/18 09:57:02;;;;;;;4.60;1.52;;;;;;;;;;5072281;28;20394;-81
2022/07/18 09:59:28;;;;;;;3.70;1.25;;;;;;;;;;5038127;28;20394;-82
2022/07/18 10:01:54;;;;;;;3.25;1.40;;;;;;;;;;5074124;28;20031;-83
2022/07/18 10:04:20;;;;;;;4.28;1.40;;;;;;;;;;5077131;28;20028;-83
2022/07/18 10:06:46;;;;;;;6.35;2.15;;;;;;;;;;5047193;28;20030;-83
2022/07/18 10:09:12;;;;;;;7.32;1.38;;;;;;;;;;5038972;28;20040;-83
2022/07/18 10:11:39;;;;;;;3.20;1.10;;;;;;;;;;5072308;28;20893;-83
2022/07/18 10:14:05;;;;;;;3.47;1.85;;;;;;;;;;5077690;28;20028;-83
2022/07/18 10:16:31;;;;;;;4.30;1.55;;;;;;;;;;5078331;28;20029;-83
2022/07/18 10:18:59;;;;;;;3.58;1.13;;;;;;;;;;5076402;28;20025;-82
2022/07/18 10:21:25;;;;;;;3.70;1.33;;;;;;;;;;5045184;28;20032;-83
2022/07/18 10:23:52;;;;;;;4.13;1.20;;;;;;;;;;5057093;28;20013;-82
2022/07/18 10:26:19;;;;;;;5.15;1.27;;;;;;;;;;5058974;28;20459;-84
2022/07/18 10:28:59;;;;;;;4.72;1.40;;;;;;;;;;5061717;28;20027;-83
2022/07/18 10:31:37;;;;;;;3.13;1.20;;;;;;;;;;5068876;28;20142;-83
2022/07/18 10:34:12;;;;;;;5.60;1.13;;;;;;;;;;5023056;28;20025;-84
2022/07/18 10:36:39;;;;;;;5.07;1.85;;;;;;;;;;5032922;28;20569;-82
2022/07/18 10:39:06;;;;;;;3.67;1.25;;;;;;;;;;5060357;28;20500;-83
2022/07/18 10:41:33;;;;;;;4.85;1.58;;;;;;;;;;5056534;28;20036;-82
2022/07/18 10:43:59;;;;;;;5.20;1.35;;;;;;;;;;5045553;28;20490;-83
2022/07/18 10:46:45;;;;;;;4.25;1.60;;;;;;;;;;5043189;28;20025;-83
2022/07/18 10:49:11;;;;;;;6.28;1.48;;;;;;;;;;5040733;28;20028;-83
2022/07/18 10:51:37;;;;;;;2.72;1.10;;;;;;;;;;5061485;28;20029;-83
2022/07/18 10:54:07;;;;;;;4.63;1.20;;;;;;;;;;5056097;28;20521;-83
2022/07/18 10:56:36;;;;;;;7.90;1.45;;;;;;;;;;5059452;28;20052;-84
2022/07/18 10:59:16;;;;;;;2.92;1.00;;;;;;;;;;5066114;28;20054;-83
2022/07/18 11:02:08;;;;;;;4.28;1.45;;;;;;;;;;5050655;28;20017;-83
2022/07/18 11:04:36;;;;;;;5.28;1.75;;;;;;;;;;5056250;28;20048;-83
2022/07/18 11:07:08;;;;;;;4.53;1.10;;;;;;;;;;5060971;28;20109;-83
2022/07/18 11:09:44;;;;;;;5.50;1.10;;;;;;;;;;5064117;28;20040;-83
2022/07/18 11:12:30;;;;;;;3.78;1.20;;;;;;;;;;5069010;28;20021;-83
2022/07/18 11:15:08;;;;;;;3.60;1.30;;;;;;;;;;5066735;28;20033;-83
2022/07/18 11:17:52;;;;;;;5.00;1.45;;;;;;;;;;5067215;28;20025;-84
2022/07/18 11:20:34;;;;;;;4.45;1.42;;;;;;;;;;5064618;28;20029;-82
2022/07/18 11:23:01;;;;;;;4.20;1.67;;;;;;;;;;5063366;28;20025;-84
2022/07/18 11:25:28;;;;;;;4.25;1.10;;;;;;;;;;5062093;28;20797;-84
2022/07/18 11:27:54;;;;;;;2.90;1.13;;;;;;;;;;5065091;28;20048;-83
2022/07/18 11:30:21;;;;;;;4.80;1.30;;;;;;;;;;5084171;28;20080;-83
2022/07/18 11:32:47;;;;;;;4.32;1.20;;;;;;;;;;5078032;28;20029;-83
2022/07/18 11:35:14;;;;;;;3.58;1.10;;;;;;;;;;5061157;28;20013;-83
2022/07/18 11:37:47;;;;;;;4.65;1.33;;;;;;;;;;5075870;28;20052;-83
2022/07/18 11:40:14;;;;;;;3.03;1.05;;;;;;;;;;5058997;28;20413;-84
2022/07/18 11:42:42;;;;;;;2.75;1.00;;;;;;;;;;5051875;28;20025;-83
2022/07/18 11:45:10;;;;;;;3.97;1.10;;;;;;;;;;5056706;28;20013;-83
2022/07/18 11:47:40;;;;;;;3.88;1.00;;;;;;;;;;5040100;28;20036;-82
2022/07/18 11:50:06;;;;;;;4.15;1.33;;;;;;;;;;5052961;28;20025;-83
2022/07/18 11:52:32;;;;;;;3.30;1.23;;;;;;;;;;5058999;28;20026;-82
2022/07/18 11:55:00;;;;;;;4.05;1.00;;;;;;;;;;5059730;28;20017;-83
2022/07/18 11:57:27;;;;;;;4.07;1.08;;;;;;;;;;5064248;28;20103;-83
2022/07/18 11:59:54;;;;;;;2.60;0.90;;;;;;;;;;5056905;28;20528;-83
2022/07/18 12:02:38;;;;;;;4.60;0.98;;;;;;;;;;5067070;28;20068;-83
2022/07/18 12:05:05;;;;;;;6.25;1.30;;;;;;;;;;5048834;28;20036;-83
2022/07/18 12:07:30;;;;;;;3.33;1.17;;;;;;;;;;5073384;28;20024;-83
2022/07/18 12:09:56;;;;;;;6.75;1.40;;;;;;;;;;5078274;28;20027;-82
2022/07/18 12:12:23;;;;;;;2.92;0.80;;;;;;;;;;5048004;28;20029;-83
2022/07/18 12:14:56;;;;;;;2.85;1.00;;;;;;;;;;5043603;28;20029;-83
2022/07/18 12:17:23;;;;;;;4.25;1.20;;;;;;;;;;5063733;28;20028;-83
2022/07/18 12:19:48;;;;;;;3.25;1.00;;;;;;;;;;5067344;28;20033;-82
2022/07/18 12:22:15;;;;;;;13.10;3.17;;;;;;;;;;5047490;28;20040;-82
2022/07/18 12:25:01;;;;;;;3.45;1.00;;;;;;;;;;5063720;28;20496;-81
2022/07/18 12:27:27;;;;;;;3.20;1.00;;;;;;;;;;5045934;28;20076;-82
2022/07/18 12:29:53;;;;;;;4.72;1.02;;;;;;;;;;5073105;28;20089;-82
2022/07/18 12:32:24;;;;;;;3.22;1.08;;;;;;;;;;5064635;28;20025;-82
2022/07/18 12:35:04;;;;;;;2.95;1.02;;;;;;;;;;5065679;28;20017;-82
2022/07/18 12:37:30;;;;;;;5.80;1.10;;;;;;;;;;5060571;28;20092;-83
2022/07/18 12:39:57;;;;;;;3.95;1.05;;;;;;;;;;5055002;28;20074;-83
2022/07/18 12:42:31;;;;;;;3.17;1.10;;;;;;;;;;5079789;28;20387;-82
2022/07/18 12:44:57;;;;;;;2.78;1.10;;;;;;;;;;5081935;28;20020;-83
2022/07/18 12:47:23;;;;;;;2.58;1.05;;;;;;;;;;5050763;28;20120;-83
2022/07/18 12:49:49;;;;;;;5.43;1.67;;;;;;;;;;5080717;28;20040;-83
2022/07/18 12:52:15;;;;;;;3.72;1.42;;;;;;;;;;5076406;28;20044;-83
2022/07/18 12:54:41;;;;;;;4.25;1.10;;;;;;;;;;5065484;28;20021;-83
2022/07/18 12:57:07;;;;;;;4.45;1.20;;;;;;;;;;5071440;28;20029;-84
2022/07/18 12:59:33;;;;;;;3.13;1.00;;;;;;;;;;5085111;28;20033;-81
2022/07/18 13:01:59;;;;;;;3.42;1.20;;;;;;;;;;5064195;28;20562;-82
2022/07/18 13:04:25;;;;;;;5.30;1.20;;;;;;;;;;5049587;28;20021;-84
2022/07/18 13:06:51;;;;;;;4.60;1.63;;;;;;;;;;5055476;28;20035;-83
2022/07/18 13:09:17;;;;;;;3.67;0.90;;;;;;;;;;5074324;28;20036;-82
2022/07/18 13:11:47;;;;;;;3.03;0.90;;;;;;;;;;5075788;28;20024;-83
2022/07/18 13:14:13;;;;;;;3.17;1.50;;;;;;;;;;5058339;28;20025;-82
2022/07/18 13:16:39;;;;;;;3.25;1.00;;;;;;;;;;5054874;28;20082;-83
2022/07/18 13:19:06;;;;;;;2.92;1.05;;;;;;;;;;5054326;28;20457;-83
2022/07/18 13:21:32;;;;;;;3.60;1.20;;;;;;;;;;5054757;28;20059;-84
2022/07/18 13:23:58;;;;;;;3.17;0.85;;;;;;;;;;5045714;28;20028;-83
2022/07/18 13:26:24;;;;;;;4.03;0.90;;;;;;;;;;5055257;28;20207;-82
2022/07/18 13:28:50;;;;;;;3.45;1.00;;;;;;;;;;5049227;28;20556;-84
2022/07/18 13:31:16;;;;;;;3.47;1.00;;;;;;;;;;5041822;28;20032;-83
2022/07/18 13:33:42;;;;;;;3.55;0.90;;;;;;;;;;5059371;28;20025;-83
2022/07/18 13:36:08;;;;;;;3.10;1.02;;;;;;;;;;5054807;28;20027;-83
2022/07/18 13:38:34;;;;;;;3.38;0.95;;;;;;;;;;5073404;28;20562;-84
2022/07/18 13:41:00;;;;;;;3.40;1.17;;;;;;;;;;5049571;28;20092;-85
2022/07/18 13:43:26;;;;;;;3.10;0.90;;;;;;;;;;5055680;28;20055;-83
2022/07/18 13:45:52;;;;;;;2.70;1.00;;;;;;;;;;5056919;28;20021;-83
2022/07/18 13:48:18;;;;;;;2.42;0.90;;;;;;;;;;5052924;28;20034;-84
2022/07/18 13:50:44;;;;;;;2.38;0.90;;;;;;;;;;5053564;28;20021;-83
2022/07/18 13:53:10;;;;;;;3.75;1.00;;;;;;;;;;5039904;28;20025;-82
2022/07/18 13:55:36;;;;;;;7.13;1.83;;;;;;;;;;5055840;28;20075;-84
2022/07/18 13:58:02;;;;;;;8.02;1.90;;;;;;;;;;5039498;28;20162;-83
2022/07/18 14:00:28;;;;;;;3.80;0.88;;;;;;;;;;5056861;28;20029;-83
2022/07/18 14:02:54;;;;;;;6.18;1.40;;;;;;;;;;5053498;28;20040;-83
2022/07/18 14:05:20;;;;;;;2.83;1.05;;;;;;;;;;5056051;28;20017;-83
2022/07/18 14:07:47;;;;;;;2.75;1.00;;;;;;;;;;5064770;28;20104;-83
2022/07/18 14:10:14;;;;;;;3.50;0.95;;;;;;;;;;5057143;28;20027;-83
2022/07/18 14:12:41;;;;;;;2.13;0.80;;;;;;;;;;5055716;28;20021;-83
2022/07/18 14:15:07;;;;;;;5.15;1.10;;;;;;;;;;5054586;28;20025;-82
2022/07/18 14:17:33;;;;;;;3.70;1.02;;;;;;;;;;5056955;28;20033;-83
2022/07/18 14:19:59;;;;;;;2.30;1.10;;;;;;;;;;5069074;28;20036;-83
2022/07/18 14:22:25;;;;;;;4.40;0.95;;;;;;;;;;5066827;28;20021;-83
2022/07/18 14:24:52;;;;;;;3.25;0.90;;;;;;;;;;5079943;28;20027;-83
2022/07/18 14:27:18;;;;;;;4.57;1.42;;;;;;;;;;5054099;28;20697;-83
2022/07/18 14:29:44;;;;;;;2.83;1.02;;;;;;;;;;5052413;28;20486;-83
2022/07/18 14:32:10;;;;;;;2.55;0.73;;;;;;;;;;5079944;28;20077;-84
2022/07/18 14:34:36;;;;;;;3.28;1.25;;;;;;;;;;5082860;28;20074;-83
2022/07/18 14:37:02;;;;;;;3.05;0.90;;;;;;;;;;5066058;28;20398;-83
2022/07/18 14:39:28;;;;;;;6.03;1.10;;;;;;;;;;5059672;28;20043;-83
2022/07/18 14:41:54;;;;;;;4.13;1.30;;;;;;;;;;5079818;28;20514;-83
2022/07/18 14:44:20;;;;;;;3.90;1.20;;;;;;;;;;5077873;28;20025;-83
2022/07/18 14:46:46;;;;;;;6.18;1.20;;;;;;;;;;5066691;28;20025;-84